<?xml version="1.0" encoding="utf-8"?>
<gpx xmlns:xsi="http://www.w3.org/2001/XMLSchema-instance" xmlns:xsd="http://www.w3.org/2001/XMLSchema" version="1.1" creator="Shapelink.com" xmlns="http://www.topografix.com/GPX/1/1" xmlns:gpxtpx="http://www.garmin.com/xmlschemas/TrackPointExtension/v1">
  <metadata>
    <name>Övrigt 1.75 km, 2020-07-03</name>
    <desc></desc>
    <author><name>Marian Moron</name></author> 
    <time>2020-07-03T20:40:18Z</time>
  </metadata>
  <trk>
    <name>Övrigt 1.75 km, 2020-07-03</name>
    <trkseg>
      <trkpt lat="51.229887312486" lon="4.457312784227">
        <ele>0</ele>
        <time>2020-07-03T20:40:18Z</time>
      </trkpt>
      <trkpt lat="51.229828555367" lon="4.456982034453">
        <ele>0</ele>
        <time>2020-07-03T20:40:37Z</time>
      </trkpt>
      <trkpt lat="51.229734678087" lon="4.45688757044">
        <ele>0</ele>
        <time>2020-07-03T20:40:54Z</time>
      </trkpt>
      <trkpt lat="51.229717327554" lon="4.456542906712">
        <ele>0</ele>
        <time>2020-07-03T20:41:48Z</time>
      </trkpt>
      <trkpt lat="51.230160310969" lon="4.456519102116">
        <ele>1.8</ele>
        <time>2020-07-03T20:42:27Z</time>
      </trkpt>
      <trkpt lat="51.230218648993" lon="4.456470068001">
        <ele>3.4</ele>
        <time>2020-07-03T20:42:41Z</time>
      </trkpt>
      <trkpt lat="51.230319986164" lon="4.456442659188">
        <ele>4.6</ele>
        <time>2020-07-03T20:42:51Z</time>
      </trkpt>
      <trkpt lat="51.230697758397" lon="4.456368479373">
        <ele>8.8</ele>
        <time>2020-07-03T20:43:20Z</time>
      </trkpt>
      <trkpt lat="51.230718796966" lon="4.456361773853">
        <ele>8.8</ele>
        <time>2020-07-03T20:43:23Z</time>
      </trkpt>
      <trkpt lat="51.230886770242" lon="4.456368227916">
        <ele>11.2</ele>
        <time>2020-07-03T20:44:01Z</time>
      </trkpt>
      <trkpt lat="51.230932619235" lon="4.456189693446">
        <ele>8.6</ele>
        <time>2020-07-03T20:45:20Z</time>
      </trkpt>
      <trkpt lat="51.23094309661" lon="4.456246941823">
        <ele>4.6</ele>
        <time>2020-07-03T20:45:38Z</time>
      </trkpt>
      <trkpt lat="51.231063879789" lon="4.456187430333">
        <ele>5.6</ele>
        <time>2020-07-03T20:45:50Z</time>
      </trkpt>
      <trkpt lat="51.231107633307" lon="4.456263286528">
        <ele>6</ele>
        <time>2020-07-03T20:45:57Z</time>
      </trkpt>
      <trkpt lat="51.231122217813" lon="4.456366886812">
        <ele>6.8</ele>
        <time>2020-07-03T20:46:02Z</time>
      </trkpt>
      <trkpt lat="51.231142921106" lon="4.456393289797">
        <ele>6.8</ele>
        <time>2020-07-03T20:46:04Z</time>
      </trkpt>
      <trkpt lat="51.231205785356" lon="4.456473169304">
        <ele>5.2</ele>
        <time>2020-07-03T20:46:19Z</time>
      </trkpt>
      <trkpt lat="51.231245934657" lon="4.456513318605">
        <ele>2.4</ele>
        <time>2020-07-03T20:46:23Z</time>
      </trkpt>
      <trkpt lat="51.231224057898" lon="4.457109439333">
        <ele>2.2</ele>
        <time>2020-07-03T20:47:02Z</time>
      </trkpt>
      <trkpt lat="51.23126579976" lon="4.457488971765">
        <ele>6.4</ele>
        <time>2020-07-03T20:47:22Z</time>
      </trkpt>
      <trkpt lat="51.231340147213" lon="4.457951401188">
        <ele>0</ele>
        <time>2020-07-03T20:47:54Z</time>
      </trkpt>
      <trkpt lat="51.231511892344" lon="4.458250299742">
        <ele>1</ele>
        <time>2020-07-03T20:48:43Z</time>
      </trkpt>
      <trkpt lat="51.231558160432" lon="4.458337052407">
        <ele>4.4</ele>
        <time>2020-07-03T20:48:54Z</time>
      </trkpt>
      <trkpt lat="51.231648517314" lon="4.459049849183">
        <ele>0</ele>
        <time>2020-07-03T20:49:29Z</time>
      </trkpt>
      <trkpt lat="51.231704256949" lon="4.459193934044">
        <ele>0</ele>
        <time>2020-07-03T20:49:38Z</time>
      </trkpt>
      <trkpt lat="51.231744741526" lon="4.459373390523">
        <ele>0</ele>
        <time>2020-07-03T20:49:50Z</time>
      </trkpt>
      <trkpt lat="51.231783968818" lon="4.459484953612">
        <ele>2.2</ele>
        <time>2020-07-03T20:49:57Z</time>
      </trkpt>
      <trkpt lat="51.231785226103" lon="4.459518313574">
        <ele>3.2</ele>
        <time>2020-07-03T20:49:59Z</time>
      </trkpt>
      <trkpt lat="51.231852448941" lon="4.459726352332">
        <ele>3.6</ele>
        <time>2020-07-03T20:50:11Z</time>
      </trkpt>
      <trkpt lat="51.23187600208" lon="4.459777230465">
        <ele>2.8</ele>
        <time>2020-07-03T20:50:15Z</time>
      </trkpt>
      <trkpt lat="51.231874996252" lon="4.45981452992">
        <ele>2.4</ele>
        <time>2020-07-03T20:50:17Z</time>
      </trkpt>
      <trkpt lat="51.231886647093" lon="4.459876472161">
        <ele>1.4</ele>
        <time>2020-07-03T20:50:20Z</time>
      </trkpt>
      <trkpt lat="51.231987229893" lon="4.460349546597">
        <ele>0</ele>
        <time>2020-07-03T20:50:45Z</time>
      </trkpt>
      <trkpt lat="51.232008184643" lon="4.46040126292">
        <ele>0</ele>
        <time>2020-07-03T20:50:51Z</time>
      </trkpt>
      <trkpt lat="51.232116897886" lon="4.460535289501">
        <ele>0</ele>
        <time>2020-07-03T20:51:32Z</time>
      </trkpt>
      <trkpt lat="51.232049172134" lon="4.46053956427">
        <ele>3.6</ele>
        <time>2020-07-03T20:52:52Z</time>
      </trkpt>
      <trkpt lat="51.231933166638" lon="4.460543000849">
        <ele>0</ele>
        <time>2020-07-03T20:53:23Z</time>
      </trkpt>
      <trkpt lat="51.231836523331" lon="4.460427498267">
        <ele>0</ele>
        <time>2020-07-03T20:53:38Z</time>
      </trkpt>
      <trkpt lat="51.23181816697" lon="4.460352983176">
        <ele>0</ele>
        <time>2020-07-03T20:53:43Z</time>
      </trkpt>
      <trkpt lat="51.231792350718" lon="4.46026715252">
        <ele>0</ele>
        <time>2020-07-03T20:53:50Z</time>
      </trkpt>
      <trkpt lat="51.231654133187" lon="4.459901198766">
        <ele>0</ele>
        <time>2020-07-03T20:54:36Z</time>
      </trkpt>
      <trkpt lat="51.231248784503" lon="4.459752084765">
        <ele>0</ele>
        <time>2020-07-03T20:55:57Z</time>
      </trkpt>
      <trkpt lat="51.230817451929" lon="4.459824252924">
        <ele>0</ele>
        <time>2020-07-03T20:57:28Z</time>
      </trkpt>
      <trkpt lat="51.230803370337" lon="4.459821151621">
        <ele>0.4</ele>
        <time>2020-07-03T20:57:30Z</time>
      </trkpt>
      <trkpt lat="51.230610083723" lon="4.45987655598">
        <ele>0</ele>
        <time>2020-07-03T20:57:52Z</time>
      </trkpt>
      <trkpt lat="51.230406068277" lon="4.459325446055">
        <ele>0</ele>
        <time>2020-07-03T20:58:33Z</time>
      </trkpt>
      <trkpt lat="51.230291403885" lon="4.458970640228">
        <ele>0</ele>
        <time>2020-07-03T20:59:01Z</time>
      </trkpt>
      <trkpt lat="51.230275729732" lon="4.458976004644">
        <ele>0</ele>
        <time>2020-07-03T20:59:03Z</time>
      </trkpt>
      <trkpt lat="51.230034414831" lon="4.45902746951">
        <ele>0</ele>
        <time>2020-07-03T20:59:47Z</time>
      </trkpt>
      <trkpt lat="51.229584725896" lon="4.459109863587">
        <ele>0</ele>
        <time>2020-07-03T21:00:21Z</time>
      </trkpt>
      <trkpt lat="51.229377776785" lon="4.459170464724">
        <ele>0.4</ele>
        <time>2020-07-03T21:00:42Z</time>
      </trkpt>
      <trkpt lat="51.228935547741" lon="4.459233580431">
        <ele>0</ele>
        <time>2020-07-03T21:01:44Z</time>
      </trkpt>
      <trkpt lat="51.22884343066" lon="4.459201477754">
        <ele>1</ele>
        <time>2020-07-03T21:01:54Z</time>
      </trkpt>
      <trkpt lat="51.228671434072" lon="4.459230646766">
        <ele>5.6</ele>
        <time>2020-07-03T21:02:12Z</time>
      </trkpt>
      <trkpt lat="51.228532210713" lon="4.458998300498">
        <ele>0</ele>
        <time>2020-07-03T21:02:33Z</time>
      </trkpt>
      <trkpt lat="51.228501784416" lon="4.458291706328">
        <ele>1</ele>
        <time>2020-07-03T21:03:17Z</time>
      </trkpt>
      <trkpt lat="51.228664980009" lon="4.458144268707">
        <ele>7.8</ele>
        <time>2020-07-03T21:03:53Z</time>
      </trkpt>
      <trkpt lat="51.229113579297" lon="4.458061120259">
        <ele>8.6</ele>
        <time>2020-07-03T21:04:30Z</time>
      </trkpt>
      <trkpt lat="51.229315247811" lon="4.458022144424">
        <ele>14.8</ele>
        <time>2020-07-03T21:04:48Z</time>
      </trkpt>
      <trkpt lat="51.229744233453" lon="4.457915778113">
        <ele>10</ele>
        <time>2020-07-03T21:06:02Z</time>
      </trkpt>
      <trkpt lat="51.229778347786" lon="4.457917203036">
        <ele>0.8</ele>
        <time>2020-07-03T21:06:17Z</time>
      </trkpt>
      <trkpt lat="51.22981489287" lon="4.457954251034">
        <ele>0</ele>
        <time>2020-07-03T21:06:21Z</time>
      </trkpt>
      <trkpt lat="51.22990374101" lon="4.458212078278">
        <ele>0</ele>
        <time>2020-07-03T21:06:32Z</time>
      </trkpt>
      <trkpt lat="51.229999127032" lon="4.458858322768">
        <ele>0</ele>
        <time>2020-07-03T21:07:03Z</time>
      </trkpt>
      <trkpt lat="51.230094680692" lon="4.458823034969">
        <ele>0</ele>
        <time>2020-07-03T21:07:10Z</time>
      </trkpt>
      <trkpt lat="51.230117395641" lon="4.458834769629">
        <ele>0</ele>
        <time>2020-07-03T21:07:12Z</time>
      </trkpt>
      <trkpt lat="51.230201633736" lon="4.458888832884">
        <ele>0</ele>
        <time>2020-07-03T21:07:19Z</time>
      </trkpt>
      <trkpt lat="51.230221834115" lon="4.45887575712">
        <ele>0</ele>
        <time>2020-07-03T21:07:21Z</time>
      </trkpt>
      <trkpt lat="51.230395423264" lon="4.458806690264">
        <ele>4</ele>
        <time>2020-07-03T21:07:35Z</time>
      </trkpt>
      <trkpt lat="51.230408582847" lon="4.458839379674">
        <ele>5.2</ele>
        <time>2020-07-03T21:07:37Z</time>
      </trkpt>
      <trkpt lat="51.230473626391" lon="4.459547817862">
        <ele>2.2</ele>
        <time>2020-07-03T21:08:11Z</time>
      </trkpt>
      <trkpt lat="51.230475721866" lon="4.459585536412">
        <ele>2</ele>
        <time>2020-07-03T21:08:13Z</time>
      </trkpt>
      <trkpt lat="51.230479996635" lon="4.459617471451">
        <ele>1.4</ele>
        <time>2020-07-03T21:08:15Z</time>
      </trkpt>
      <trkpt lat="51.230408499028" lon="4.459590397914">
        <ele>0</ele>
        <time>2020-07-03T21:09:24Z</time>
      </trkpt>
      <trkpt lat="51.230405146268" lon="4.459362829329">
        <ele>0</ele>
        <time>2020-07-03T21:09:38Z</time>
      </trkpt>
      <trkpt lat="51.230361644207" lon="4.459220420848">
        <ele>0</ele>
        <time>2020-07-03T21:09:47Z</time>
      </trkpt>
      <trkpt lat="51.230349574271" lon="4.459177840796">
        <ele>0</ele>
        <time>2020-07-03T21:09:51Z</time>
      </trkpt>
      <trkpt lat="51.230240441933" lon="4.458871314713">
        <ele>0</ele>
        <time>2020-07-03T21:10:09Z</time>
      </trkpt>
      <trkpt lat="51.230196185501" lon="4.458851198153">
        <ele>0</ele>
        <time>2020-07-03T21:10:14Z</time>
      </trkpt>
      <trkpt lat="51.230182942099" lon="4.458825381901">
        <ele>0</ele>
        <time>2020-07-03T21:10:16Z</time>
      </trkpt>
      <trkpt lat="51.230129297939" lon="4.458811635585">
        <ele>0</ele>
        <time>2020-07-03T21:10:23Z</time>
      </trkpt>
      <trkpt lat="51.229930982185" lon="4.458711807156">
        <ele>0</ele>
        <time>2020-07-03T21:10:44Z</time>
      </trkpt>
      <trkpt lat="51.229891000522" lon="4.458488932435">
        <ele>0</ele>
        <time>2020-07-03T21:10:55Z</time>
      </trkpt>
      <trkpt lat="51.229878846767" lon="4.458363706849">
        <ele>0</ele>
        <time>2020-07-03T21:11:01Z</time>
      </trkpt>
      <trkpt lat="51.229823107132" lon="4.458004374796">
        <ele>0</ele>
        <time>2020-07-03T21:11:24Z</time>
      </trkpt>
      <trkpt lat="51.229784047478" lon="4.457990209385">
        <ele>0</ele>
        <time>2020-07-03T21:11:29Z</time>
      </trkpt>
      <trkpt lat="51.229664940679" lon="4.457943019288">
        <ele>0</ele>
        <time>2020-07-03T21:12:51Z</time>
      </trkpt>
    </trkseg>
  </trk>
</gpx>